Millingandi Real Estate, NSW, 2549 Bega Valley

Thinking about buying in Millingandi? Now could not be a better time, with just 392 residential dwellings it's a highly sought after location.

The average property price for this area is $705,000 with prices in this suburb ranging from $346,000 to $1,000,000.

Distance to the coast is 0 Km.

Millingandi Real Estate Market Outlook

In Millingandi there has been a history of lower than average prices and demand, offering opportunities for investors or first home owners, especially in the context of the growth in working from home. Low average incomes in Millingandi is reflected in smaller and lower quality accommodation. Over time this may change providsing long-term returns but in the short to medium term, prices are likely to be less than state averages. The slightly lower than average earnings from occupations in Millingandi changes the housing and lifestyle preference. It is more a matter of what can be afforded rather than what would we prefer, leading to slower price increases over time. Low population density implies low demand and limits housing choices and price increases. Could be a good entry point for first home buyers needing to somehow get into the market. Lower than average industry presence in Millingandi we believe will be less of a negative impact than it has in the past. Post-COVID and the growth in working from home has lessened the demand for local employment options. This may make Millingandi a better buying opportunity than it may have been in the past.

About

Properties For Sale

Local Schools


None within suburb boundary

(While the above schools are located with the suburb of Millingandi there may also be nearby schools whose catchments cover this suburb)

Local Crime Rates


Average Local Climate by month


(mm)
RAIN
Min (°C)
TEMP
Max (°C)
TEMP
Min (%)
HUMIDITY
Max (%)
HUMIDITY
(m/sec)
WIND
(MJ/sq m)
SOLAR
Jan1.917.022.664.5908.121.9
Feb2.617.022.565.890.97.518.4
Mar2.815.821.661.189.27.515.7
Apr2.214.020.258.588.66.612.8
May2.511.317.457.488.87.09.6
Jun3.39.715.55988.96.77.7
Jul1.78.815.054.287.66.58.5
Aug2.18.915.750.987.6711
Sept2.110.517.156.189.3814.9
Oct2.411.417.956.589.28.119.3
Nov2.213.819.760.889.38.323.3
Dec2.015.121.061.088.48.425.1

source: Australian Government Bureau of Meteorology

Recently Sold Properties / House Prices

30-05-2022 $775,000 94 MILLINGANDI RIDGE RD MILLINGANDI 2549
28-04-2022 $1,650,000 64 STRINGYBARK PL MILLINGANDI 2549
07-04-2022 $1,200,000 110 BOGGY CREEK RD MILLINGANDI 2549
14-03-2022 $1,010,000 56 STRINGYBARK PL MILLINGANDI 2549
21-01-2022 $769,000 64 MILLINGANDI SHORT CUT RD MILLINGANDI 2549
14-12-2021 $480,000 73 STRINGYBARK PL MILLINGANDI 2549
11-11-2021 $899,000 27 BUCKETT LANE MILLINGANDI 2549
06-08-2021 $965,000 2529 PRINCES HWY MILLINGANDI 2549
21-07-2021 $900,000 14 OAKLEAF PL MILLINGANDI 2549
06-05-2021 $900,000 32 MILLINGANDI SHORT CUT RD MILLINGANDI 2549
28-04-2021 $450,000 90 WOODLANDS LANE MILLINGANDI 2549
26-02-2021 $765,000 7 BOGGY CREEK RD MILLINGANDI 2549
22-01-2021 $985,000 8 WATERSIDE LANE MILLINGANDI 2549
22-01-2021 $1,520,000 155 WOODLANDS LANE MILLINGANDI 2549
22-01-2021 $985,000 8 WATERSIDE LANE MILLINGANDI 2549
22-01-2021 $1,520,000 155 WOODLANDS LANE MILLINGANDI 2549
30-10-2020 $455,000 43 STRINGYBARK PL MILLINGANDI 2549
01-10-2020 $3,900,000 3211 PRINCES HWY MILLINGANDI 2549
01-10-2020 $3,900,000 3211 PRINCES HWY MILLINGANDI 2549
01-10-2020 $3,900,000 3211 PRINCES HWY MILLINGANDI 2549
01-10-2020 $3,900,000 3211 PRINCES HWY MILLINGANDI 2549
01-10-2020 $3,900,000 3211 PRINCES HWY MILLINGANDI 2549
01-10-2020 $3,900,000 3211 PRINCES HWY MILLINGANDI 2549
01-10-2020 $3,900,000 3211 PRINCES HWY MILLINGANDI 2549
01-10-2020 $3,900,000 3211 PRINCES HWY MILLINGANDI 2549
01-10-2020 $3,900,000 3211 PRINCES HWY MILLINGANDI 2549
01-10-2020 $3,900,000 3211 PRINCES HWY MILLINGANDI 2549
01-10-2020 $3,900,000 3211 PRINCES HWY MILLINGANDI 2549
01-10-2020 $3,900,000 3211 PRINCES HWY MILLINGANDI 2549
01-10-2020 $3,900,000 3211 PRINCES HWY MILLINGANDI 2549
01-10-2020 $3,900,000 3211 PRINCES HWY MILLINGANDI 2549
01-10-2020 $3,900,000 3211 PRINCES HWY MILLINGANDI 2549
01-10-2020 $3,900,000 3211 PRINCES HWY MILLINGANDI 2549
01-10-2020 $3,900,000 3211 PRINCES HWY MILLINGANDI 2549
01-10-2020 $3,900,000 3211 PRINCES HWY MILLINGANDI 2549
01-10-2020 $3,900,000 3211 PRINCES HWY MILLINGANDI 2549
01-10-2020 $3,900,000 3211 PRINCES HWY MILLINGANDI 2549
01-10-2020 $3,900,000 3211 PRINCES HWY MILLINGANDI 2549
01-10-2020 $3,900,000 3211 PRINCES HWY MILLINGANDI 2549
01-10-2020 $3,900,000 3211 PRINCES HWY MILLINGANDI 2549
01-10-2020 $3,900,000 3211 PRINCES HWY MILLINGANDI 2549
01-10-2020 $3,900,000 3211 PRINCES HWY MILLINGANDI 2549
01-10-2020 $3,900,000 3211 PRINCES HWY MILLINGANDI 2549
01-10-2020 $3,900,000 3211 PRINCES HWY MILLINGANDI 2549
01-10-2020 $3,900,000 3211 PRINCES HWY MILLINGANDI 2549
01-10-2020 $3,900,000 3211 PRINCES HWY MILLINGANDI 2549
01-10-2020 $3,900,000 3211 PRINCES HWY MILLINGANDI 2549
01-10-2020 $3,900,000 3211 PRINCES HWY MILLINGANDI 2549
01-10-2020 $3,900,000 3211 PRINCES HWY MILLINGANDI 2549
01-10-2020 $3,900,000 3211 PRINCES HWY MILLINGANDI 2549

Internet Speed

  • Fixed Wireless
  • Satellite

Residz covers 12m+ Australian properties and brings together a wealth of data to give you a better understanding of an area. From crime and schools to bush fire, flood risk and more. Begin your search for properties for sale or learn more about where you currently reside. Residz is an exciting next-generation Real Estate platform getting better by the day!